createdAt,value
2019-03-10T00:04:28.851Z,22.25
2019-03-10T00:09:34.067Z,24.17
2019-03-10T00:14:39.558Z,22.52
2019-03-10T00:19:45.761Z,22.05
2019-03-10T00:24:51.060Z,22.73
2019-03-10T00:29:56.628Z,24.23
2019-03-10T00:35:01.867Z,22.42
2019-03-10T00:40:49.890Z,21.37
2019-03-10T00:46:38.605Z,22.75
2019-03-10T00:52:07.277Z,23.27
2019-03-10T00:57:12.527Z,24.18
2019-03-10T01:02:18.027Z,22.53
2019-03-10T01:07:23.338Z,22.35
2019-03-10T01:12:28.528Z,21.73
2019-03-10T01:17:35.091Z,21.87
2019-03-10T01:22:40.571Z,23.32
2019-03-10T01:27:45.801Z,21.30
2019-03-10T01:33:37.244Z,19.65
2019-03-10T01:38:42.449Z,21.30
2019-03-10T01:43:47.688Z,18.37
2019-03-10T01:48:52.959Z,22.67
2019-03-10T01:53:58.190Z,24.72
2019-03-10T01:59:03.487Z,22.45
2019-03-10T02:04:08.711Z,21.23
2019-03-10T02:09:15.292Z,21.12
2019-03-10T02:14:20.663Z,22.98
2019-03-10T02:19:25.864Z,22.32
2019-03-10T02:24:31.117Z,23.53
2019-03-10T02:29:37.043Z,21.48
2019-03-10T02:34:43.111Z,21.90
2019-03-10T02:39:48.976Z,17.67
2019-03-10T02:44:54.253Z,17.70
2019-03-10T02:49:59.497Z,21.52
2019-03-10T02:55:04.889Z,20.52
2019-03-10T03:00:11.549Z,25.68
2019-03-10T03:05:16.921Z,18.27
2019-03-10T03:10:22.250Z,20.65
2019-03-10T03:15:30.182Z,15.23
2019-03-10T03:20:37.568Z,19.15
2019-03-10T03:30:50.953Z,22.55
2019-03-10T03:35:59.593Z,19.30
2019-03-10T03:41:07.825Z,23.92
2019-03-10T03:46:13.569Z,19.42
2019-03-10T03:51:18.935Z,18.77
2019-03-10T03:56:24.543Z,20.70
2019-03-10T04:01:33.360Z,21.87
2019-03-10T04:06:38.799Z,20.62
2019-03-10T04:11:44.564Z,23.98
2019-03-10T04:16:50.320Z,19.32
2019-03-10T04:21:57.033Z,21.13
2019-03-10T04:27:02.334Z,18.52
2019-03-10T04:32:08.358Z,19.75
2019-03-10T04:37:13.590Z,20.03
2019-03-10T04:42:18.884Z,17.73
2019-03-10T04:47:24.485Z,19.98
2019-03-10T04:52:29.681Z,23.00
2019-03-10T04:57:35.099Z,21.07
2019-03-10T05:02:40.293Z,20.08
2019-03-10T05:07:45.916Z,23.93
2019-03-10T05:12:51.129Z,22.65
2019-03-10T05:17:56.321Z,19.90
2019-03-10T05:23:27.264Z,20.00
2019-03-10T05:28:33.243Z,18.50
2019-03-10T05:33:38.470Z,20.40
2019-03-10T05:38:43.666Z,24.90
2019-03-10T05:43:48.959Z,26.15
2019-03-10T05:48:54.180Z,23.97
2019-03-10T05:53:59.369Z,24.32
2019-03-10T05:59:04.653Z,28.53
2019-03-10T06:04:09.935Z,21.75
2019-03-10T06:09:15.155Z,27.87
2019-03-10T06:14:20.547Z,25.45
2019-03-10T06:19:25.746Z,24.87
2019-03-10T06:24:30.948Z,23.70
2019-03-10T06:29:36.233Z,24.23
2019-03-10T06:34:41.757Z,22.43
2019-03-10T06:39:47.065Z,22.70
2019-03-10T06:44:52.252Z,18.02
2019-03-10T06:49:57.634Z,24.87
2019-03-10T06:55:03.897Z,19.47
2019-03-10T07:00:10.922Z,19.45
2019-03-10T07:05:16.174Z,21.00
2019-03-10T07:10:21.378Z,19.55
2019-03-10T07:15:26.670Z,24.90
2019-03-10T07:20:32.157Z,25.80
2019-03-10T07:25:38.411Z,24.43
2019-03-10T07:30:48.691Z,16.65
2019-03-10T07:36:06.609Z,15.75
2019-03-10T07:41:18.698Z,19.97
2019-03-10T07:46:41.782Z,37.48
2019-03-10T07:52:05.437Z,12.18
2019-03-10T07:57:29.756Z,17.67
2019-03-10T08:03:00.075Z,16.67
2019-03-10T08:08:25.299Z,5.15
2019-03-10T08:13:55.441Z,3.37
2019-03-10T08:19:08.988Z,2.22
2019-03-10T08:24:20.385Z,1.73
2019-03-10T08:29:44.801Z,3.58
2019-03-10T08:35:08.637Z,2.53
2019-03-10T08:40:24.900Z,2.67
2019-03-10T08:45:47.805Z,2.20
2019-03-10T08:51:04.026Z,2.22
2019-03-10T08:56:27.532Z,2.00
2019-03-10T09:01:50.592Z,1.00
2019-03-10T09:07:11.243Z,1.40
2019-03-10T09:12:21.726Z,1.27
2019-03-10T09:17:45.082Z,1.47
2019-03-10T09:22:57.935Z,0.95
2019-03-10T09:28:28.293Z,0.80
2019-03-10T09:34:07.514Z,1.50
2019-03-10T09:39:43.973Z,0.70
2019-03-10T09:45:20.708Z,1.05
2019-03-10T09:50:50.662Z,1.30
2019-03-10T09:56:10.112Z,1.30
2019-03-10T10:01:21.629Z,1.92
2019-03-10T10:06:46.039Z,2.20
2019-03-10T10:12:13.724Z,1.17
2019-03-10T10:17:26.973Z,1.93
2019-03-10T10:22:41.545Z,1.30
2019-03-10T10:28:05.768Z,2.20
2019-03-10T10:33:33.205Z,1.70
2019-03-10T10:39:03.454Z,3.70
2019-03-10T10:44:17.302Z,3.00
2019-03-10T10:49:50.629Z,2.27
2019-03-10T10:55:01.029Z,3.15
2019-03-10T11:00:21.792Z,4.85
2019-03-10T11:05:44.536Z,5.55
2019-03-10T11:11:08.689Z,6.30
2019-03-10T11:16:20.086Z,7.92
2019-03-10T11:21:31.582Z,4.50
2019-03-10T11:26:43.696Z,7.77
2019-03-10T11:31:59.608Z,6.93
2019-03-10T11:37:26.927Z,6.15
2019-03-10T11:42:51.130Z,4.87
2019-03-10T11:48:21.221Z,9.37
2019-03-10T11:53:57.751Z,7.37
2019-03-10T11:59:09.786Z,7.20
2019-03-10T12:04:29.612Z,7.47
2019-03-10T12:09:35.806Z,7.53
2019-03-10T12:14:41.143Z,8.28
2019-03-10T12:19:46.447Z,8.38
2019-03-10T12:24:51.712Z,6.80
2019-03-10T12:29:57.261Z,7.67
2019-03-10T12:35:02.675Z,5.53
2019-03-10T12:40:08.300Z,5.50
2019-03-10T12:45:13.706Z,5.78
2019-03-10T12:50:19.158Z,6.90
2019-03-10T12:55:25.792Z,7.90
2019-03-10T13:00:30.981Z,6.43
2019-03-10T13:05:36.317Z,9.47
2019-03-10T13:10:41.727Z,10.60
2019-03-10T13:15:46.972Z,12.77
2019-03-10T13:20:52.695Z,15.57
2019-03-10T13:25:57.905Z,12.88
2019-03-10T13:31:03.472Z,12.45
2019-03-10T13:36:09.822Z,10.50
2019-03-10T13:41:15.459Z,10.93
2019-03-10T13:46:20.666Z,10.88
2019-03-10T13:51:25.985Z,9.03
2019-03-10T13:56:31.334Z,7.35
2019-03-10T14:01:36.586Z,9.43
2019-03-10T14:06:42.233Z,9.13
2019-03-10T14:11:47.553Z,13.53
2019-03-10T14:16:52.983Z,9.10
2019-03-10T14:21:58.217Z,9.53
2019-03-10T14:27:03.433Z,7.83
2019-03-10T14:32:08.786Z,9.07
2019-03-10T14:37:14.290Z,9.65
2019-03-10T14:42:19.630Z,9.45
2019-03-10T14:47:25.914Z,6.20
2019-03-10T14:52:31.925Z,6.45
2019-03-10T14:57:37.392Z,8.90
2019-03-10T15:02:42.982Z,6.15
2019-03-10T15:07:48.316Z,6.17
2019-03-10T15:12:53.682Z,4.17
2019-03-10T15:17:59.309Z,3.63
2019-03-10T15:23:04.614Z,4.12
2019-03-10T15:28:09.855Z,4.73
2019-03-10T15:33:15.257Z,3.95
2019-03-10T15:38:20.490Z,2.00
2019-03-10T15:43:25.844Z,4.63
2019-03-10T15:48:31.325Z,2.95
2019-03-10T15:53:36.724Z,4.40
2019-03-10T15:58:42.053Z,3.17
2019-03-10T16:03:47.795Z,4.23
2019-03-10T16:08:53.081Z,2.17
2019-03-10T16:13:58.364Z,2.10
2019-03-10T16:19:03.747Z,2.60
2019-03-10T16:24:09.227Z,2.83
2019-03-10T16:29:14.478Z,3.80
2019-03-10T16:34:19.668Z,2.95
2019-03-10T16:39:24.862Z,3.10
2019-03-10T16:44:30.036Z,3.67
2019-03-10T16:49:35.473Z,4.97
2019-03-10T16:54:40.960Z,2.00
2019-03-10T16:59:46.334Z,2.90
2019-03-10T17:04:51.755Z,1.13
2019-03-10T17:09:57.221Z,2.12
2019-03-10T17:15:02.875Z,1.00
2019-03-10T17:20:09.733Z,1.15
2019-03-10T17:25:15.572Z,1.32
2019-03-10T17:30:21.657Z,1.22
2019-03-10T17:35:26.860Z,1.30
2019-03-10T17:40:32.089Z,1.20
2019-03-10T17:45:40.291Z,1.80
2019-03-10T17:50:45.632Z,1.50
2019-03-10T17:55:50.935Z,2.95
2019-03-10T18:00:56.178Z,2.50
2019-03-10T18:06:01.855Z,1.37
2019-03-10T18:11:07.040Z,1.80
2019-03-10T18:16:12.685Z,1.85
2019-03-10T18:21:18.423Z,1.87
2019-03-10T18:26:24.287Z,1.32
2019-03-10T18:31:29.696Z,1.15
2019-03-10T18:36:35.157Z,1.65
2019-03-10T18:41:40.546Z,1.50
2019-03-10T18:46:45.867Z,3.02
2019-03-10T18:51:53.446Z,2.75
2019-03-10T18:56:59.306Z,3.72
2019-03-10T19:02:04.672Z,3.83
2019-03-10T19:07:09.988Z,2.93
2019-03-10T19:12:15.660Z,3.75
2019-03-10T19:17:20.911Z,5.50
2019-03-10T19:22:26.344Z,5.23
2019-03-10T19:27:31.904Z,3.15
2019-03-10T19:32:37.288Z,2.90
2019-03-10T19:37:45.499Z,3.75
2019-03-10T19:42:50.953Z,4.30
2019-03-10T19:47:56.192Z,3.72
2019-03-10T19:53:01.499Z,6.28
2019-03-10T19:58:06.896Z,4.17
2019-03-10T20:03:28.888Z,5.92
2019-03-10T20:08:35.152Z,3.02
2019-03-10T20:13:40.734Z,3.80
2019-03-10T20:18:45.948Z,4.58
2019-03-10T20:23:51.351Z,2.97
2019-03-10T20:28:56.563Z,5.22
2019-03-10T20:34:01.755Z,3.90
2019-03-10T20:39:08.732Z,4.33
2019-03-10T20:44:15.108Z,2.77
2019-03-10T20:49:20.458Z,3.98
2019-03-10T20:54:25.642Z,3.60
2019-03-10T20:59:31.184Z,4.53
2019-03-10T21:04:39.586Z,3.20
2019-03-10T21:09:46.127Z,2.97
2019-03-10T21:14:51.343Z,2.57
2019-03-10T21:19:56.540Z,3.10
2019-03-10T21:25:01.809Z,2.25
2019-03-10T21:30:11.419Z,2.87
2019-03-10T21:35:18.140Z,3.50
2019-03-10T21:40:24.590Z,2.98
2019-03-10T21:45:30.663Z,2.70
2019-03-10T21:50:35.898Z,3.80
2019-03-10T21:55:41.277Z,3.60
2019-03-10T22:00:46.662Z,6.87
2019-03-10T22:05:51.921Z,3.98
2019-03-10T22:10:57.513Z,3.50
2019-03-10T22:16:02.712Z,2.98
2019-03-10T22:21:08.312Z,1.45
2019-03-10T22:26:14.507Z,1.60
2019-03-10T22:31:20.115Z,2.45
2019-03-10T22:36:25.428Z,3.33
2019-03-10T22:41:30.656Z,2.00
2019-03-10T22:46:37.302Z,3.60
2019-03-10T22:51:42.614Z,2.87
2019-03-10T22:56:47.879Z,2.90
2019-03-10T23:01:53.595Z,6.53
2019-03-10T23:06:59.183Z,5.97
2019-03-10T23:12:04.803Z,5.47
2019-03-10T23:17:10.108Z,9.68
2019-03-10T23:22:15.615Z,8.80
2019-03-10T23:27:21.133Z,8.30
2019-03-10T23:32:26.383Z,7.92
2019-03-10T23:37:31.583Z,8.77
2019-03-10T23:42:37.209Z,8.63
2019-03-10T23:47:42.603Z,10.50
2019-03-10T23:52:47.808Z,8.98
2019-03-10T23:57:53.058Z,9.13
